Time,TemperatureF,DewpointF,PressureIn,WindDirection,WindDirectionDegrees,WindSpeedMPH,WindSpeedGustMPH,Humidity,HourlyPrecipIn,Conditions,Clouds,dailyrainin,SoftwareType,DateUTC
2013-03-03 02:32:00,34.0,24.0,-100.00,ENE,75,1.0,9.0,68,-99.99,,,-99.99,,2013-03-03 07:32:00,
2013-03-03 03:01:00,34.0,25.0,-100.00,ENE,65,1.0,5.0,69,-99.99,,,-99.99,,2013-03-03 08:01:00,
2013-03-03 03:11:00,34.0,25.0,-100.00,NNE,20,1.0,5.0,69,-99.99,,,-99.99,,2013-03-03 08:11:00,
2013-03-03 03:21:00,33.0,25.0,-100.00,East,95,1.0,5.0,70,-99.99,,,-99.99,,2013-03-03 08:21:00,
2013-03-03 03:32:00,33.0,25.0,-100.00,East,95,2.0,5.0,70,-99.99,,,-99.99,,2013-03-03 08:32:00,
2013-03-03 03:42:00,33.0,25.0,-100.00,ENE,70,1.0,5.0,70,-99.99,,,-99.99,,2013-03-03 08:42:00,
2013-03-03 03:53:00,33.0,25.0,-100.00,ENE,70,2.0,6.0,70,-99.99,,,-99.99,,2013-03-03 08:53:00,
2013-03-03 04:02:00,33.0,25.0,-100.00,ENE,60,2.0,6.0,70,-99.99,,,-99.99,,2013-03-03 09:02:00,
2013-03-03 04:12:00,33.0,25.0,-100.00,ENE,75,1.0,5.0,70,-99.99,,,-99.99,,2013-03-03 09:12:00,
2013-03-03 04:21:00,33.0,24.0,-100.00,East,85,2.0,5.0,69,-99.99,,,-99.99,,2013-03-03 09:21:00,
2013-03-03 04:30:00,33.0,24.0,-100.00,ENE,65,1.0,5.0,70,-99.99,,,-99.99,,2013-03-03 09:30:00,
2013-03-03 04:32:00,33.0,24.0,-100.00,ENE,60,2.0,7.0,70,-99.99,,,-99.99,,2013-03-03 09:32:00,
2013-03-03 04:42:00,33.0,24.0,-100.00,ENE,75,1.0,5.0,70,-99.99,,,-99.99,,2013-03-03 09:42:00,
2013-03-03 04:51:00,33.0,25.0,-100.00,North,10,0.0,7.0,70,-99.99,,,-99.99,,2013-03-03 09:51:00,
2013-03-03 05:01:00,33.0,25.0,-100.00,North,10,0.0,7.0,70,-99.99,,,-99.99,,2013-03-03 10:01:00,
2013-03-03 05:12:00,33.0,24.0,-100.00,ENE,65,1.0,5.0,70,-99.99,,,-99.99,,2013-03-03 10:12:00,
2013-03-03 05:21:00,33.0,24.0,-100.00,ENE,65,1.0,5.0,70,-99.99,,,-99.99,,2013-03-03 10:21:00,
2013-03-03 05:42:00,33.0,25.0,-100.00,ENE,65,2.0,3.0,71,-99.99,,,-99.99,,2013-03-03 10:42:00,
2013-03-03 05:52:00,33.0,25.0,-100.00,ENE,65,2.0,3.0,71,-99.99,,,-99.99,,2013-03-03 10:52:00,
2013-03-03 06:02:00,33.0,24.0,-100.00,NE,40,2.0,5.0,70,-99.99,,,-99.99,,2013-03-03 11:02:00,
2013-03-03 06:11:00,33.0,25.0,-100.00,NE,45,1.0,5.0,71,-99.99,,,-99.99,,2013-03-03 11:11:00,
2013-03-03 06:22:00,33.0,25.0,-100.00,East,85,0.0,5.0,71,-99.99,,,-99.99,,2013-03-03 11:22:00,
2013-03-03 06:32:00,33.0,25.0,-100.00,NNE,25,1.0,3.0,71,-99.99,,,-99.99,,2013-03-03 11:32:00,
2013-03-03 06:42:00,33.0,25.0,-100.00,ESE,110,1.0,5.0,71,-99.99,,,-99.99,,2013-03-03 11:42:00,
2013-03-03 06:52:00,33.0,25.0,-100.00,NE,40,2.0,6.0,71,-99.99,,,-99.99,,2013-03-03 11:52:00,
2013-03-03 07:02:00,33.0,25.0,-100.00,North,0,2.0,5.0,71,-99.99,,,-99.99,,2013-03-03 12:02:00,
2013-03-03 07:11:00,33.0,25.0,-100.00,ENE,65,2.0,5.0,72,-99.99,,,-99.99,,2013-03-03 12:11:00,
2013-03-03 07:22:00,33.0,25.0,-100.00,NNE,30,2.0,5.0,72,-99.99,,,-99.99,,2013-03-03 12:22:00,
2013-03-03 07:32:00,33.0,25.0,-100.00,ENE,65,2.0,5.0,72,-99.99,,,-99.99,,2013-03-03 12:32:00,
2013-03-03 07:43:00,33.0,25.0,-100.00,ENE,65,2.0,7.0,71,-99.99,,,-99.99,,2013-03-03 12:43:00,
2013-03-03 07:52:00,33.0,25.0,-100.00,ENE,75,2.0,8.0,71,-99.99,,,-99.99,,2013-03-03 12:52:00,
2013-03-03 08:02:00,33.0,25.0,-100.00,ENE,70,2.0,5.0,70,-99.99,,,-99.99,,2013-03-03 13:02:00,
2013-03-03 08:11:00,33.0,25.0,-100.00,ENE,65,3.0,5.0,70,-99.99,,,-99.99,,2013-03-03 13:11:00,
2013-03-03 08:22:00,34.0,25.0,-100.00,ENE,65,2.0,6.0,70,-99.99,,,-99.99,,2013-03-03 13:22:00,
2013-03-03 08:32:00,34.0,25.0,-100.00,NE,40,3.0,7.0,69,-99.99,,,-99.99,,2013-03-03 13:32:00,
2013-03-03 08:42:00,34.0,25.0,-100.00,ENE,60,2.0,5.0,68,-99.99,,,-99.99,,2013-03-03 13:42:00,
2013-03-03 08:52:00,34.0,25.0,-100.00,East,85,2.0,7.0,69,-99.99,,,-99.99,,2013-03-03 13:52:00,
2013-03-03 09:02:00,34.0,25.0,-100.00,East,85,2.0,7.0,69,-99.99,,,-99.99,,2013-03-03 14:02:00,
2013-03-03 09:11:00,35.0,25.0,-100.00,ENE,65,6.0,10.0,67,-99.99,,,-99.99,,2013-03-03 14:11:00,
2013-03-03 09:22:00,35.0,25.0,-100.00,NE,55,3.0,7.0,66,-99.99,,,-99.99,,2013-03-03 14:22:00,
2013-03-03 09:32:00,36.0,25.0,-100.00,ENE,75,2.0,8.0,65,-99.99,,,-99.99,,2013-03-03 14:32:00,
2013-03-03 09:42:00,36.0,25.0,-100.00,East,90,0.0,5.0,65,-99.99,,,-99.99,,2013-03-03 14:42:00,
2013-03-03 09:52:00,36.0,26.0,-100.00,East,90,2.0,8.0,65,-99.99,,,-99.99,,2013-03-03 14:52:00,
2013-03-03 10:02:00,37.0,26.0,-100.00,ESE,105,2.0,7.0,64,-99.99,,,-99.99,,2013-03-03 15:02:00,
2013-03-03 10:10:00,39.0,27.0,-100.00,East,100,1.0,7.0,62,-99.99,,,-99.99,,2013-03-03 15:10:00,
2013-03-03 10:11:00,37.0,26.0,-100.00,ENE,60,7.0,10.0,64,-99.99,,,-99.99,,2013-03-03 15:11:00,
2013-03-03 10:22:00,37.0,26.0,-100.00,ENE,65,3.0,8.0,63,-99.99,,,-99.99,,2013-03-03 15:22:00,
2013-03-03 10:32:00,38.0,27.0,-100.00,SE,140,5.0,8.0,64,-99.99,,,-99.99,,2013-03-03 15:32:00,
2013-03-03 10:42:00,38.0,26.0,-100.00,SSE,165,2.0,8.0,63,-99.99,,,-99.99,,2013-03-03 15:42:00,
2013-03-03 10:52:00,39.0,27.0,-100.00,East,100,1.0,7.0,62,-99.99,,,-99.99,,2013-03-03 15:52:00,
2013-03-03 11:02:00,39.0,27.0,-100.00,East,100,1.0,7.0,62,-99.99,,,-99.99,,2013-03-03 16:02:00,
2013-03-03 12:12:00,42.0,28.0,-100.00,ENE,70,3.0,9.0,58,-99.99,,,-99.99,,2013-03-03 17:12:00,
2013-03-03 12:22:00,41.0,28.0,-100.00,East,95,3.0,9.0,59,-99.99,,,-99.99,,2013-03-03 17:22:00,
2013-03-03 12:32:00,42.0,29.0,-100.00,ENE,65,5.0,10.0,59,-99.99,,,-99.99,,2013-03-03 17:32:00,
2013-03-03 12:42:00,44.0,29.0,-100.00,SE,145,3.0,9.0,56,-99.99,,,-99.99,,2013-03-03 17:42:00,
2013-03-03 12:52:00,43.0,30.0,-100.00,ENE,75,3.0,9.0,58,-99.99,,,-99.99,,2013-03-03 17:52:00,
2013-03-03 13:02:00,47.0,30.0,-100.00,SE,135,5.0,10.0,53,-99.99,,,-99.99,,2013-03-03 18:02:00,
2013-03-03 13:11:00,42.0,29.0,-100.00,NE,55,5.0,10.0,58,-99.99,,,-99.99,,2013-03-03 18:11:00,
2013-03-03 13:22:00,43.0,29.0,-100.00,ESE,105,2.0,8.0,58,-99.99,,,-99.99,,2013-03-03 18:22:00,
2013-03-03 13:32:00,44.0,29.0,-100.00,NE,55,5.0,9.0,55,-99.99,,,-99.99,,2013-03-03 18:32:00,
2013-03-03 13:42:00,43.0,30.0,-100.00,East,80,1.0,7.0,59,-99.99,,,-99.99,,2013-03-03 18:42:00,
2013-03-03 13:52:00,42.0,29.0,-100.00,ENE,65,3.0,9.0,59,-99.99,,,-99.99,,2013-03-03 18:52:00,
2013-03-03 14:02:00,43.0,30.0,-100.00,ENE,70,1.0,7.0,59,-99.99,,,-99.99,,2013-03-03 19:02:00,
2013-03-03 14:11:00,43.0,29.0,-100.00,SE,130,2.0,8.0,59,-99.99,,,-99.99,,2013-03-03 19:11:00,
2013-03-03 14:22:00,43.0,30.0,-100.00,SSE,155,5.0,10.0,60,-99.99,,,-99.99,,2013-03-03 19:22:00,
2013-03-03 14:32:00,45.0,31.0,-100.00,SE,140,3.0,10.0,58,-99.99,,,-99.99,,2013-03-03 19:32:00,
2013-03-03 14:42:00,43.0,30.0,-100.00,ENE,65,6.0,10.0,60,-99.99,,,-99.99,,2013-03-03 19:42:00,
2013-03-03 14:52:00,43.0,31.0,-100.00,East,85,2.0,9.0,62,-99.99,,,-99.99,,2013-03-03 19:52:00,
2013-03-03 15:02:00,42.0,30.0,-100.00,ENE,65,5.0,10.0,62,-99.99,,,-99.99,,2013-03-03 20:02:00,
2013-03-03 15:11:00,43.0,30.0,-100.00,ENE,65,6.0,13.0,61,-99.99,,,-99.99,,2013-03-03 20:11:00,
2013-03-03 15:22:00,42.0,31.0,-100.00,SSE,165,2.0,8.0,63,-99.99,,,-99.99,,2013-03-03 20:22:00,
2013-03-03 15:32:00,42.0,30.0,-100.00,ENE,70,5.0,7.0,61,-99.99,,,-99.99,,2013-03-03 20:32:00,
2013-03-03 15:42:00,42.0,30.0,-100.00,NE,50,3.0,9.0,62,-99.99,,,-99.99,,2013-03-03 20:42:00,
2013-03-03 15:52:00,42.0,30.0,-100.00,East,80,5.0,9.0,61,-99.99,,,-99.99,,2013-03-03 20:52:00,
2013-03-03 16:02:00,43.0,30.0,-100.00,NE,45,2.0,8.0,58,-99.99,,,-99.99,,2013-03-03 21:02:00,
2013-03-03 16:10:00,41.0,31.0,-100.00,East,90,1.0,7.0,68,-99.99,,,-99.99,,2013-03-03 21:10:00,
2013-03-03 16:12:00,42.0,30.0,-100.00,East,100,2.0,7.0,60,-99.99,,,-99.99,,2013-03-03 21:12:00,
2013-03-03 16:22:00,42.0,30.0,-100.00,East,95,2.0,10.0,61,-99.99,,,-99.99,,2013-03-03 21:22:00,
2013-03-03 16:32:00,42.0,31.0,-100.00,SSE,155,1.0,7.0,63,-99.99,,,-99.99,,2013-03-03 21:32:00,
2013-03-03 16:42:00,41.0,31.0,-100.00,East,80,2.0,9.0,66,-99.99,,,-99.99,,2013-03-03 21:42:00,
2013-03-03 16:52:00,41.0,31.0,-100.00,East,90,1.0,7.0,68,-99.99,,,-99.99,,2013-03-03 21:52:00,
2013-03-03 17:02:00,41.0,31.0,-100.00,East,90,1.0,7.0,68,-99.99,,,-99.99,,2013-03-03 22:02:00,
2013-03-03 17:32:00,39.0,31.0,-100.00,ENE,60,2.0,10.0,72,-99.99,,,-99.99,,2013-03-03 22:32:00,
2013-03-03 17:42:00,39.0,31.0,-100.00,East,90,2.0,6.0,72,-99.99,,,-99.99,,2013-03-03 22:42:00,
2013-03-03 17:52:00,39.0,31.0,-100.00,ENE,75,5.0,9.0,74,-99.99,,,-99.99,,2013-03-03 22:52:00,
2013-03-03 18:02:00,38.0,31.0,-100.00,NE,50,6.0,10.0,74,-99.99,,,-99.99,,2013-03-03 23:02:00,
2013-03-03 18:11:00,37.0,31.0,-100.00,NE,35,2.0,8.0,78,-99.99,,,-99.99,,2013-03-03 23:11:00,
2013-03-03 18:22:00,37.0,31.0,-100.00,NNE,20,3.0,7.0,80,-99.99,,,-99.99,,2013-03-03 23:22:00,
2013-03-03 18:32:00,36.0,31.0,-100.00,ENE,70,3.0,7.0,80,-99.99,,,-99.99,,2013-03-03 23:32:00,
2013-03-03 18:42:00,36.0,31.0,-100.00,NNE,15,3.0,8.0,82,-99.99,,,-99.99,,2013-03-03 23:42:00,
2013-03-03 18:52:00,36.0,31.0,-100.00,NE,40,2.0,8.0,83,-99.99,,,-99.99,,2013-03-03 23:52:00,
2013-03-03 19:02:00,36.0,31.0,-100.00,North,5,2.0,5.0,84,-99.99,,,-99.99,,2013-03-04 00:02:00,
2013-03-03 19:11:00,36.0,31.0,-100.00,NE,35,2.0,5.0,84,-99.99,,,-99.99,,2013-03-04 00:11:00,
2013-03-03 19:22:00,36.0,31.0,-100.00,NNE,20,2.0,6.0,84,-99.99,,,-99.99,,2013-03-04 00:22:00,
2013-03-03 19:42:00,36.0,31.0,-100.00,East,90,2.0,6.0,84,-99.99,,,-99.99,,2013-03-04 00:42:00,
2013-03-03 19:52:00,35.0,31.0,-100.00,ENE,70,5.0,8.0,84,-99.99,,,-99.99,,2013-03-04 00:52:00,
2013-03-03 20:02:00,35.0,31.0,-100.00,East,85,2.0,9.0,87,-99.99,,,-99.99,,2013-03-04 01:02:00,
2013-03-03 20:12:00,35.0,31.0,-100.00,ENE,60,3.0,9.0,87,-99.99,,,-99.99,,2013-03-04 01:12:00,
2013-03-03 20:22:00,35.0,31.0,-100.00,ENE,65,2.0,8.0,88,-99.99,,,-99.99,,2013-03-04 01:22:00,
2013-03-03 20:32:00,34.0,32.0,-100.00,NE,50,5.0,8.0,90,-99.99,,,-99.99,,2013-03-04 01:32:00,
2013-03-03 20:42:00,34.0,32.0,-100.00,NE,45,2.0,12.0,90,-99.99,,,-99.99,,2013-03-04 01:42:00,
2013-03-03 20:52:00,34.0,31.0,-100.00,North,0,1.0,8.0,91,-99.99,,,-99.99,,2013-03-04 01:52:00,
2013-03-03 21:01:00,34.0,31.0,-100.00,NE,45,3.0,7.0,91,-99.99,,,-99.99,,2013-03-04 02:01:00,
2013-03-03 21:11:00,34.0,31.0,-100.00,NNE,25,2.0,8.0,91,-99.99,,,-99.99,,2013-03-04 02:11:00,
2013-03-03 21:22:00,34.0,31.0,-100.00,ENE,60,2.0,8.0,91,-99.99,,,-99.99,,2013-03-04 02:22:00,
2013-03-03 21:32:00,33.0,31.0,-100.00,ENE,75,3.0,8.0,92,-99.99,,,-99.99,,2013-03-04 02:32:00,
2013-03-03 21:42:00,33.0,31.0,-100.00,ENE,60,2.0,8.0,92,-99.99,,,-99.99,,2013-03-04 02:42:00,
2013-03-03 21:52:00,33.0,31.0,-100.00,NE,55,5.0,7.0,91,-99.99,,,-99.99,,2013-03-04 02:52:00,
2013-03-03 22:02:00,33.0,31.0,-100.00,ENE,65,3.0,8.0,92,-99.99,,,-99.99,,2013-03-04 03:02:00,
2013-03-03 22:10:00,33.0,30.0,-100.00,NE,35,1.0,7.0,89,-99.99,,,-99.99,,2013-03-04 03:10:00,
2013-03-03 22:11:00,33.0,31.0,-100.00,ENE,65,3.0,8.0,92,-99.99,,,-99.99,,2013-03-04 03:11:00,
2013-03-03 22:22:00,33.0,31.0,-100.00,NE,45,3.0,6.0,91,-99.99,,,-99.99,,2013-03-04 03:22:00,
2013-03-03 22:32:00,33.0,30.0,-100.00,NE,45,2.0,6.0,90,-99.99,,,-99.99,,2013-03-04 03:32:00,
2013-03-03 22:42:00,33.0,30.0,-100.00,ENE,60,2.0,7.0,90,-99.99,,,-99.99,,2013-03-04 03:42:00,
2013-03-03 22:52:00,33.0,30.0,-100.00,NE,35,1.0,7.0,89,-99.99,,,-99.99,,2013-03-04 03:52:00,
2013-03-03 23:02:00,33.0,30.0,-100.00,NE,35,1.0,7.0,89,-99.99,,,-99.99,,2013-03-04 04:02:00,